sensor_id;sensor_type;location;lat;lon;timestamp;P1;durP1;ratioP1;P2;durP2;ratioP2
77598;SDS011;66758;52.078;5.070;2023-01-29T00:01:50;28.97;;;14.13;;
77598;SDS011;66758;52.078;5.070;2023-01-29T00:04:17;28.90;;;15.07;;
77598;SDS011;66758;52.078;5.070;2023-01-29T00:06:45;26.58;;;14.27;;
77598;SDS011;66758;52.078;5.070;2023-01-29T00:09:10;26.85;;;14.00;;
77598;SDS011;66758;52.078;5.070;2023-01-29T00:11:37;32.63;;;15.65;;
77598;SDS011;66758;52.078;5.070;2023-01-29T00:14:04;30.70;;;14.43;;
77598;SDS011;66758;52.078;5.070;2023-01-29T00:16:30;31.90;;;14.75;;
77598;SDS011;66758;52.078;5.070;2023-01-29T00:18:57;26.75;;;14.25;;
77598;SDS011;66758;52.078;5.070;2023-01-29T00:21:24;27.65;;;14.77;;
77598;SDS011;66758;52.078;5.070;2023-01-29T00:23:50;25.77;;;14.60;;
77598;SDS011;66758;52.078;5.070;2023-01-29T00:26:16;26.80;;;13.40;;
77598;SDS011;66758;52.078;5.070;2023-01-29T00:28:53;24.17;;;12.93;;
77598;SDS011;66758;52.078;5.070;2023-01-29T00:31:29;25.77;;;13.95;;
77598;SDS011;66758;52.078;5.070;2023-01-29T00:33:55;29.40;;;13.60;;
77598;SDS011;66758;52.078;5.070;2023-01-29T00:36:27;23.88;;;13.40;;
77598;SDS011;66758;52.078;5.070;2023-01-29T00:38:55;29.05;;;13.82;;
77598;SDS011;66758;52.078;5.070;2023-01-29T00:41:25;24.30;;;13.83;;
77598;SDS011;66758;52.078;5.070;2023-01-29T00:44:11;24.45;;;13.50;;
77598;SDS011;66758;52.078;5.070;2023-01-29T00:46:55;25.67;;;14.00;;
77598;SDS011;66758;52.078;5.070;2023-01-29T00:49:20;24.70;;;12.63;;
77598;SDS011;66758;52.078;5.070;2023-01-29T00:51:46;29.33;;;14.75;;
77598;SDS011;66758;52.078;5.070;2023-01-29T00:54:32;28.52;;;14.93;;
77598;SDS011;66758;52.078;5.070;2023-01-29T00:56:58;29.02;;;14.57;;
77598;SDS011;66758;52.078;5.070;2023-01-29T00:59:27;28.37;;;14.57;;
77598;SDS011;66758;52.078;5.070;2023-01-29T01:01:53;33.55;;;15.48;;
77598;SDS011;66758;52.078;5.070;2023-01-29T01:04:37;25.73;;;13.67;;
77598;SDS011;66758;52.078;5.070;2023-01-29T01:07:03;28.05;;;15.02;;
77598;SDS011;66758;52.078;5.070;2023-01-29T01:09:28;28.45;;;13.05;;
77598;SDS011;66758;52.078;5.070;2023-01-29T01:12:13;27.13;;;14.93;;
77598;SDS011;66758;52.078;5.070;2023-01-29T01:14:38;26.03;;;13.70;;
77598;SDS011;66758;52.078;5.070;2023-01-29T01:17:07;26.90;;;14.75;;
77598;SDS011;66758;52.078;5.070;2023-01-29T01:19:34;26.37;;;12.97;;
77598;SDS011;66758;52.078;5.070;2023-01-29T01:22:01;23.90;;;12.48;;
77598;SDS011;66758;52.078;5.070;2023-01-29T01:24:29;23.58;;;12.45;;
77598;SDS011;66758;52.078;5.070;2023-01-29T01:26:56;25.88;;;13.10;;
77598;SDS011;66758;52.078;5.070;2023-01-29T01:29:21;24.70;;;12.83;;
77598;SDS011;66758;52.078;5.070;2023-01-29T01:31:55;24.30;;;12.57;;
77598;SDS011;66758;52.078;5.070;2023-01-29T01:34:23;24.05;;;13.27;;
77598;SDS011;66758;52.078;5.070;2023-01-29T01:36:51;24.17;;;13.60;;
77598;SDS011;66758;52.078;5.070;2023-01-29T01:39:17;22.30;;;12.20;;
77598;SDS011;66758;52.078;5.070;2023-01-29T01:41:43;24.77;;;12.30;;
77598;SDS011;66758;52.078;5.070;2023-01-29T01:47:13;22.15;;;11.95;;
77598;SDS011;66758;52.078;5.070;2023-01-29T01:49:40;22.50;;;12.43;;
77598;SDS011;66758;52.078;5.070;2023-01-29T01:52:06;24.55;;;12.90;;
77598;SDS011;66758;52.078;5.070;2023-01-29T01:54:34;21.75;;;12.43;;
77598;SDS011;66758;52.078;5.070;2023-01-29T01:57:03;21.03;;;11.87;;
77598;SDS011;66758;52.078;5.070;2023-01-29T01:59:34;22.42;;;12.48;;
77598;SDS011;66758;52.078;5.070;2023-01-29T02:02:03;25.67;;;13.38;;
77598;SDS011;66758;52.078;5.070;2023-01-29T02:04:48;24.17;;;12.67;;
77598;SDS011;66758;52.078;5.070;2023-01-29T02:07:32;25.33;;;12.85;;
77598;SDS011;66758;52.078;5.070;2023-01-29T02:10:17;23.95;;;13.32;;
77598;SDS011;66758;52.078;5.070;2023-01-29T02:12:46;23.50;;;13.02;;
77598;SDS011;66758;52.078;5.070;2023-01-29T02:15:12;26.05;;;14.02;;
77598;SDS011;66758;52.078;5.070;2023-01-29T02:17:37;25.20;;;14.67;;
77598;SDS011;66758;52.078;5.070;2023-01-29T02:20:23;27.00;;;14.05;;
77598;SDS011;66758;52.078;5.070;2023-01-29T02:23:07;26.27;;;14.32;;
77598;SDS011;66758;52.078;5.070;2023-01-29T02:31:08;27.52;;;14.27;;
77598;SDS011;66758;52.078;5.070;2023-01-29T02:42:37;30.27;;;13.83;;
77598;SDS011;66758;52.078;5.070;2023-01-29T02:48:06;28.85;;;14.80;;
77598;SDS011;66758;52.078;5.070;2023-01-29T02:53:26;30.70;;;14.60;;
77598;SDS011;66758;52.078;5.070;2023-01-29T02:56:11;30.37;;;14.33;;
77598;SDS011;66758;52.078;5.070;2023-01-29T02:58:59;28.60;;;14.75;;
77598;SDS011;66758;52.078;5.070;2023-01-29T03:01:33;28.40;;;14.32;;
77598;SDS011;66758;52.078;5.070;2023-01-29T03:04:08;29.45;;;15.48;;
77598;SDS011;66758;52.078;5.070;2023-01-29T03:06:40;26.42;;;14.07;;
77598;SDS011;66758;52.078;5.070;2023-01-29T03:09:12;30.67;;;15.67;;
77598;SDS011;66758;52.078;5.070;2023-01-29T03:11:44;32.22;;;17.30;;
77598;SDS011;66758;52.078;5.070;2023-01-29T03:14:18;32.92;;;16.65;;
77598;SDS011;66758;52.078;5.070;2023-01-29T03:17:26;30.85;;;15.52;;
77598;SDS011;66758;52.078;5.070;2023-01-29T03:19:59;31.40;;;16.10;;
77598;SDS011;66758;52.078;5.070;2023-01-29T03:22:31;29.97;;;16.40;;
77598;SDS011;66758;52.078;5.070;2023-01-29T03:24:58;31.13;;;15.93;;
77598;SDS011;66758;52.078;5.070;2023-01-29T03:27:46;29.13;;;15.68;;
77598;SDS011;66758;52.078;5.070;2023-01-29T03:30:37;31.70;;;15.93;;
77598;SDS011;66758;52.078;5.070;2023-01-29T03:33:26;31.70;;;16.67;;
77598;SDS011;66758;52.078;5.070;2023-01-29T03:35:58;30.50;;;16.52;;
77598;SDS011;66758;52.078;5.070;2023-01-29T03:38:26;33.28;;;16.95;;
77598;SDS011;66758;52.078;5.070;2023-01-29T03:40:57;31.33;;;16.33;;
77598;SDS011;66758;52.078;5.070;2023-01-29T03:43:34;32.17;;;16.38;;
77598;SDS011;66758;52.078;5.070;2023-01-29T03:51:39;36.10;;;17.02;;
77598;SDS011;66758;52.078;5.070;2023-01-29T03:59:38;30.37;;;15.70;;
77598;SDS011;66758;52.078;5.070;2023-01-29T04:02:12;29.85;;;16.15;;
77598;SDS011;66758;52.078;5.070;2023-01-29T04:04:51;30.92;;;15.68;;
77598;SDS011;66758;52.078;5.070;2023-01-29T04:07:20;29.05;;;14.50;;
77598;SDS011;66758;52.078;5.070;2023-01-29T04:12:36;34.43;;;16.50;;
77598;SDS011;66758;52.078;5.070;2023-01-29T04:15:24;32.20;;;15.27;;
77598;SDS011;66758;52.078;5.070;2023-01-29T04:17:54;29.23;;;15.07;;
77598;SDS011;66758;52.078;5.070;2023-01-29T04:20:20;31.17;;;16.67;;
77598;SDS011;66758;52.078;5.070;2023-01-29T04:22:48;29.63;;;15.00;;
77598;SDS011;66758;52.078;5.070;2023-01-29T04:25:20;32.93;;;16.23;;
77598;SDS011;66758;52.078;5.070;2023-01-29T04:39:17;31.20;;;15.97;;
77598;SDS011;66758;52.078;5.070;2023-01-29T04:42:18;28.20;;;15.05;;
77598;SDS011;66758;52.078;5.070;2023-01-29T04:47:33;27.42;;;15.10;;
77598;SDS011;66758;52.078;5.070;2023-01-29T04:55:42;32.03;;;15.30;;
77598;SDS011;66758;52.078;5.070;2023-01-29T04:58:32;27.67;;;14.93;;
77598;SDS011;66758;52.078;5.070;2023-01-29T05:01:17;33.00;;;16.75;;
77598;SDS011;66758;52.078;5.070;2023-01-29T05:03:45;36.17;;;16.38;;
77598;SDS011;66758;52.078;5.070;2023-01-29T05:06:16;33.57;;;17.03;;
77598;SDS011;66758;52.078;5.070;2023-01-29T05:08:43;35.17;;;17.85;;
77598;SDS011;66758;52.078;5.070;2023-01-29T05:11:10;35.20;;;16.95;;
77598;SDS011;66758;52.078;5.070;2023-01-29T05:13:38;32.40;;;16.45;;
77598;SDS011;66758;52.078;5.070;2023-01-29T05:16:13;30.73;;;15.57;;
77598;SDS011;66758;52.078;5.070;2023-01-29T05:18:47;31.40;;;16.37;;
77598;SDS011;66758;52.078;5.070;2023-01-29T05:21:13;34.88;;;17.48;;
77598;SDS011;66758;52.078;5.070;2023-01-29T05:23:40;37.42;;;17.35;;
77598;SDS011;66758;52.078;5.070;2023-01-29T05:26:18;33.42;;;15.80;;
77598;SDS011;66758;52.078;5.070;2023-01-29T05:29:05;35.17;;;16.57;;
77598;SDS011;66758;52.078;5.070;2023-01-29T05:31:30;29.60;;;16.55;;
77598;SDS011;66758;52.078;5.070;2023-01-29T05:33:56;34.78;;;17.17;;
77598;SDS011;66758;52.078;5.070;2023-01-29T05:36:22;32.63;;;17.13;;
77598;SDS011;66758;52.078;5.070;2023-01-29T05:38:49;33.10;;;17.95;;
77598;SDS011;66758;52.078;5.070;2023-01-29T05:41:15;32.83;;;16.73;;
77598;SDS011;66758;52.078;5.070;2023-01-29T05:43:52;32.90;;;16.67;;
77598;SDS011;66758;52.078;5.070;2023-01-29T05:46:18;33.50;;;17.38;;
77598;SDS011;66758;52.078;5.070;2023-01-29T05:48:45;35.67;;;17.53;;
77598;SDS011;66758;52.078;5.070;2023-01-29T05:51:10;32.03;;;15.90;;
77598;SDS011;66758;52.078;5.070;2023-01-29T05:53:36;31.37;;;16.13;;
77598;SDS011;66758;52.078;5.070;2023-01-29T05:56:03;31.98;;;16.73;;
77598;SDS011;66758;52.078;5.070;2023-01-29T05:58:32;29.57;;;15.40;;
77598;SDS011;66758;52.078;5.070;2023-01-29T06:01:11;32.55;;;15.45;;
77598;SDS011;66758;52.078;5.070;2023-01-29T06:03:46;31.20;;;16.48;;
77598;SDS011;66758;52.078;5.070;2023-01-29T06:06:12;29.63;;;15.93;;
77598;SDS011;66758;52.078;5.070;2023-01-29T06:08:38;29.77;;;16.05;;
77598;SDS011;66758;52.078;5.070;2023-01-29T06:11:06;31.10;;;15.93;;
77598;SDS011;66758;52.078;5.070;2023-01-29T06:13:33;33.60;;;16.80;;
77598;SDS011;66758;52.078;5.070;2023-01-29T06:15:58;28.38;;;15.52;;
77598;SDS011;66758;52.078;5.070;2023-01-29T06:18:24;31.40;;;15.80;;
77598;SDS011;66758;52.078;5.070;2023-01-29T06:20:50;30.40;;;15.35;;
77598;SDS011;66758;52.078;5.070;2023-01-29T06:23:19;29.92;;;16.80;;
77598;SDS011;66758;52.078;5.070;2023-01-29T06:25:44;33.53;;;17.27;;
77598;SDS011;66758;52.078;5.070;2023-01-29T06:28:10;32.08;;;16.70;;
77598;SDS011;66758;52.078;5.070;2023-01-29T06:30:35;29.33;;;16.20;;
77598;SDS011;66758;52.078;5.070;2023-01-29T06:33:01;33.93;;;17.43;;
77598;SDS011;66758;52.078;5.070;2023-01-29T06:35:27;31.20;;;16.00;;
77598;SDS011;66758;52.078;5.070;2023-01-29T06:37:55;28.35;;;15.63;;
77598;SDS011;66758;52.078;5.070;2023-01-29T06:40:22;31.25;;;16.90;;
77598;SDS011;66758;52.078;5.070;2023-01-29T06:42:49;30.93;;;15.43;;
77598;SDS011;66758;52.078;5.070;2023-01-29T06:45:17;29.15;;;15.73;;
77598;SDS011;66758;52.078;5.070;2023-01-29T06:47:44;28.77;;;16.25;;
77598;SDS011;66758;52.078;5.070;2023-01-29T06:50:09;29.07;;;15.27;;
77598;SDS011;66758;52.078;5.070;2023-01-29T06:52:35;29.58;;;17.08;;
77598;SDS011;66758;52.078;5.070;2023-01-29T06:55:04;28.50;;;16.38;;
77598;SDS011;66758;52.078;5.070;2023-01-29T06:57:31;29.70;;;15.57;;
77598;SDS011;66758;52.078;5.070;2023-01-29T06:59:57;27.63;;;15.30;;
77598;SDS011;66758;52.078;5.070;2023-01-29T07:02:23;30.17;;;17.37;;
77598;SDS011;66758;52.078;5.070;2023-01-29T07:04:50;25.33;;;14.95;;
77598;SDS011;66758;52.078;5.070;2023-01-29T07:07:16;28.13;;;14.65;;
77598;SDS011;66758;52.078;5.070;2023-01-29T07:09:46;26.40;;;15.25;;
77598;SDS011;66758;52.078;5.070;2023-01-29T07:12:13;31.30;;;16.52;;
77598;SDS011;66758;52.078;5.070;2023-01-29T07:14:38;25.17;;;13.40;;
77598;SDS011;66758;52.078;5.070;2023-01-29T07:17:05;27.23;;;14.98;;
77598;SDS011;66758;52.078;5.070;2023-01-29T07:19:30;28.47;;;14.93;;
77598;SDS011;66758;52.078;5.070;2023-01-29T07:21:57;25.90;;;15.30;;
77598;SDS011;66758;52.078;5.070;2023-01-29T07:24:26;28.95;;;16.25;;
77598;SDS011;66758;52.078;5.070;2023-01-29T07:26:56;31.80;;;15.63;;
77598;SDS011;66758;52.078;5.070;2023-01-29T07:29:21;24.03;;;14.80;;
77598;SDS011;66758;52.078;5.070;2023-01-29T07:31:48;29.65;;;17.00;;
77598;SDS011;66758;52.078;5.070;2023-01-29T07:34:15;27.55;;;16.25;;
77598;SDS011;66758;52.078;5.070;2023-01-29T07:36:47;28.40;;;15.82;;
77598;SDS011;66758;52.078;5.070;2023-01-29T07:39:22;26.65;;;13.20;;
77598;SDS011;66758;52.078;5.070;2023-01-29T07:41:49;23.40;;;14.47;;
77598;SDS011;66758;52.078;5.070;2023-01-29T07:44:16;28.23;;;15.18;;
77598;SDS011;66758;52.078;5.070;2023-01-29T07:46:45;25.23;;;14.63;;
77598;SDS011;66758;52.078;5.070;2023-01-29T07:49:12;30.13;;;16.23;;
77598;SDS011;66758;52.078;5.070;2023-01-29T07:51:40;28.38;;;15.90;;
77598;SDS011;66758;52.078;5.070;2023-01-29T07:54:05;26.98;;;15.32;;
77598;SDS011;66758;52.078;5.070;2023-01-29T07:56:31;28.53;;;15.80;;
77598;SDS011;66758;52.078;5.070;2023-01-29T07:58:56;25.58;;;14.93;;
77598;SDS011;66758;52.078;5.070;2023-01-29T08:01:24;25.97;;;15.00;;
77598;SDS011;66758;52.078;5.070;2023-01-29T08:03:51;23.98;;;13.60;;
77598;SDS011;66758;52.078;5.070;2023-01-29T08:06:19;28.88;;;15.48;;
77598;SDS011;66758;52.078;5.070;2023-01-29T08:08:44;25.55;;;14.55;;
77598;SDS011;66758;52.078;5.070;2023-01-29T08:11:10;30.27;;;15.30;;
77598;SDS011;66758;52.078;5.070;2023-01-29T08:13:36;28.73;;;14.68;;
77598;SDS011;66758;52.078;5.070;2023-01-29T08:16:02;25.33;;;14.23;;
77598;SDS011;66758;52.078;5.070;2023-01-29T08:18:29;25.10;;;14.67;;
77598;SDS011;66758;52.078;5.070;2023-01-29T08:21:02;32.60;;;16.02;;
77598;SDS011;66758;52.078;5.070;2023-01-29T08:23:29;25.70;;;13.95;;
77598;SDS011;66758;52.078;5.070;2023-01-29T08:25:56;24.27;;;15.20;;
77598;SDS011;66758;52.078;5.070;2023-01-29T08:28:21;27.10;;;15.77;;
77598;SDS011;66758;52.078;5.070;2023-01-29T08:30:48;27.42;;;15.00;;
77598;SDS011;66758;52.078;5.070;2023-01-29T08:33:14;26.42;;;15.27;;
77598;SDS011;66758;52.078;5.070;2023-01-29T08:35:41;28.50;;;14.25;;
77598;SDS011;66758;52.078;5.070;2023-01-29T08:38:08;27.17;;;14.47;;
77598;SDS011;66758;52.078;5.070;2023-01-29T08:40:35;28.95;;;15.68;;
77598;SDS011;66758;52.078;5.070;2023-01-29T08:43:02;26.13;;;14.70;;
77598;SDS011;66758;52.078;5.070;2023-01-29T08:45:31;28.85;;;16.00;;
77598;SDS011;66758;52.078;5.070;2023-01-29T08:47:58;31.50;;;15.35;;
77598;SDS011;66758;52.078;5.070;2023-01-29T08:50:24;24.93;;;13.27;;
77598;SDS011;66758;52.078;5.070;2023-01-29T08:52:49;29.42;;;14.43;;
77598;SDS011;66758;52.078;5.070;2023-01-29T08:55:15;26.15;;;14.07;;
77598;SDS011;66758;52.078;5.070;2023-01-29T08:57:41;26.03;;;15.13;;
77598;SDS011;66758;52.078;5.070;2023-01-29T09:00:08;24.37;;;15.30;;
77598;SDS011;66758;52.078;5.070;2023-01-29T09:02:34;24.17;;;15.55;;
77598;SDS011;66758;52.078;5.070;2023-01-29T09:05:31;24.70;;;13.15;;
77598;SDS011;66758;52.078;5.070;2023-01-29T09:07:59;23.63;;;13.52;;
77598;SDS011;66758;52.078;5.070;2023-01-29T09:10:26;29.50;;;14.65;;
77598;SDS011;66758;52.078;5.070;2023-01-29T09:12:53;25.10;;;14.00;;
77598;SDS011;66758;52.078;5.070;2023-01-29T09:15:19;24.95;;;15.50;;
77598;SDS011;66758;52.078;5.070;2023-01-29T09:17:45;24.40;;;14.10;;
77598;SDS011;66758;52.078;5.070;2023-01-29T09:20:13;25.35;;;13.75;;
77598;SDS011;66758;52.078;5.070;2023-01-29T09:22:40;25.48;;;15.07;;
77598;SDS011;66758;52.078;5.070;2023-01-29T09:25:06;24.27;;;13.80;;
77598;SDS011;66758;52.078;5.070;2023-01-29T09:27:32;27.42;;;14.85;;
77598;SDS011;66758;52.078;5.070;2023-01-29T09:29:57;28.03;;;14.60;;
77598;SDS011;66758;52.078;5.070;2023-01-29T09:32:23;27.08;;;14.82;;
77598;SDS011;66758;52.078;5.070;2023-01-29T09:34:49;26.93;;;14.80;;
77598;SDS011;66758;52.078;5.070;2023-01-29T09:37:14;29.97;;;15.13;;
77598;SDS011;66758;52.078;5.070;2023-01-29T09:39:42;25.50;;;14.70;;
77598;SDS011;66758;52.078;5.070;2023-01-29T09:42:13;22.20;;;12.32;;
77598;SDS011;66758;52.078;5.070;2023-01-29T09:47:30;26.48;;;15.25;;
77598;SDS011;66758;52.078;5.070;2023-01-29T09:50:06;25.93;;;15.47;;
77598;SDS011;66758;52.078;5.070;2023-01-29T09:52:42;24.55;;;13.75;;
77598;SDS011;66758;52.078;5.070;2023-01-29T09:55:22;26.90;;;15.07;;
77598;SDS011;66758;52.078;5.070;2023-01-29T10:00:24;25.85;;;13.90;;
77598;SDS011;66758;52.078;5.070;2023-01-29T10:06:14;26.52;;;14.70;;
77598;SDS011;66758;52.078;5.070;2023-01-29T10:17:24;25.73;;;14.87;;
77598;SDS011;66758;52.078;5.070;2023-01-29T10:26:00;30.38;;;16.70;;
77598;SDS011;66758;52.078;5.070;2023-01-29T10:34:01;31.60;;;16.02;;
77598;SDS011;66758;52.078;5.070;2023-01-29T10:39:04;31.70;;;17.08;;
77598;SDS011;66758;52.078;5.070;2023-01-29T10:41:41;31.40;;;17.17;;
77598;SDS011;66758;52.078;5.070;2023-01-29T10:47:06;29.60;;;16.88;;
77598;SDS011;66758;52.078;5.070;2023-01-29T10:52:34;30.42;;;16.65;;
77598;SDS011;66758;52.078;5.070;2023-01-29T11:01:03;25.70;;;14.00;;
77598;SDS011;66758;52.078;5.070;2023-01-29T11:03:30;30.47;;;15.80;;
77598;SDS011;66758;52.078;5.070;2023-01-29T11:08:33;32.22;;;17.42;;
77598;SDS011;66758;52.078;5.070;2023-01-29T11:13:39;30.50;;;17.02;;
77598;SDS011;66758;52.078;5.070;2023-01-29T11:16:08;33.77;;;16.17;;
77598;SDS011;66758;52.078;5.070;2023-01-29T11:21:48;33.80;;;17.92;;
77598;SDS011;66758;52.078;5.070;2023-01-29T11:24:21;33.13;;;17.75;;
77598;SDS011;66758;52.078;5.070;2023-01-29T11:26:47;34.13;;;18.47;;
77598;SDS011;66758;52.078;5.070;2023-01-29T11:32:03;34.67;;;17.40;;
77598;SDS011;66758;52.078;5.070;2023-01-29T11:34:33;36.45;;;18.23;;
77598;SDS011;66758;52.078;5.070;2023-01-29T11:37:00;33.28;;;18.88;;
77598;SDS011;66758;52.078;5.070;2023-01-29T11:39:29;32.72;;;16.67;;
77598;SDS011;66758;52.078;5.070;2023-01-29T11:41:56;34.87;;;18.17;;
77598;SDS011;66758;52.078;5.070;2023-01-29T11:44:29;34.00;;;18.25;;
77598;SDS011;66758;52.078;5.070;2023-01-29T11:49:58;36.30;;;19.20;;
77598;SDS011;66758;52.078;5.070;2023-01-29T11:52:32;34.55;;;17.15;;
77598;SDS011;66758;52.078;5.070;2023-01-29T11:55:02;35.90;;;17.97;;
77598;SDS011;66758;52.078;5.070;2023-01-29T11:57:34;30.65;;;16.73;;
77598;SDS011;66758;52.078;5.070;2023-01-29T12:00:04;33.85;;;17.63;;
77598;SDS011;66758;52.078;5.070;2023-01-29T12:02:42;32.65;;;18.08;;
77598;SDS011;66758;52.078;5.070;2023-01-29T12:05:15;35.97;;;18.42;;
77598;SDS011;66758;52.078;5.070;2023-01-29T12:07:59;37.23;;;18.80;;
77598;SDS011;66758;52.078;5.070;2023-01-29T12:10:37;36.42;;;18.45;;
77598;SDS011;66758;52.078;5.070;2023-01-29T12:13:27;35.88;;;19.73;;
77598;SDS011;66758;52.078;5.070;2023-01-29T12:16:14;31.40;;;16.65;;
77598;SDS011;66758;52.078;5.070;2023-01-29T12:18:50;34.45;;;19.58;;
77598;SDS011;66758;52.078;5.070;2023-01-29T12:24:33;34.10;;;18.17;;
77598;SDS011;66758;52.078;5.070;2023-01-29T12:35:42;32.07;;;18.10;;
77598;SDS011;66758;52.078;5.070;2023-01-29T12:38:22;34.47;;;19.13;;
77598;SDS011;66758;52.078;5.070;2023-01-29T12:40:50;35.83;;;19.70;;
77598;SDS011;66758;52.078;5.070;2023-01-29T12:43:42;31.33;;;18.13;;
77598;SDS011;66758;52.078;5.070;2023-01-29T12:46:16;33.70;;;19.77;;
77598;SDS011;66758;52.078;5.070;2023-01-29T12:48:53;35.30;;;18.90;;
77598;SDS011;66758;52.078;5.070;2023-01-29T12:51:26;34.13;;;19.30;;
77598;SDS011;66758;52.078;5.070;2023-01-29T12:54:01;34.47;;;20.42;;
77598;SDS011;66758;52.078;5.070;2023-01-29T12:56:52;32.22;;;18.98;;
77598;SDS011;66758;52.078;5.070;2023-01-29T12:59:27;32.78;;;19.38;;
77598;SDS011;66758;52.078;5.070;2023-01-29T13:02:05;33.53;;;19.27;;
77598;SDS011;66758;52.078;5.070;2023-01-29T13:04:54;34.53;;;18.83;;
77598;SDS011;66758;52.078;5.070;2023-01-29T13:07:27;32.97;;;18.20;;
77598;SDS011;66758;52.078;5.070;2023-01-29T13:10:03;31.48;;;16.92;;
77598;SDS011;66758;52.078;5.070;2023-01-29T13:12:39;28.40;;;17.02;;
77598;SDS011;66758;52.078;5.070;2023-01-29T13:15:35;32.67;;;17.60;;
77598;SDS011;66758;52.078;5.070;2023-01-29T13:20:57;32.47;;;18.27;;
77598;SDS011;66758;52.078;5.070;2023-01-29T13:26:04;32.53;;;18.85;;
77598;SDS011;66758;52.078;5.070;2023-01-29T13:28:34;31.07;;;18.30;;
77598;SDS011;66758;52.078;5.070;2023-01-29T13:34:06;36.53;;;19.33;;
77598;SDS011;66758;52.078;5.070;2023-01-29T13:36:32;30.17;;;17.83;;
77598;SDS011;66758;52.078;5.070;2023-01-29T13:39:02;39.70;;;21.17;;
77598;SDS011;66758;52.078;5.070;2023-01-29T13:41:33;32.90;;;17.30;;
77598;SDS011;66758;52.078;5.070;2023-01-29T13:46:56;34.65;;;18.60;;
77598;SDS011;66758;52.078;5.070;2023-01-29T13:52:13;28.60;;;16.80;;
77598;SDS011;66758;52.078;5.070;2023-01-29T13:54:41;25.10;;;15.60;;
77598;SDS011;66758;52.078;5.070;2023-01-29T13:57:32;25.00;;;15.43;;
77598;SDS011;66758;52.078;5.070;2023-01-29T14:10:40;30.00;;;17.10;;
77598;SDS011;66758;52.078;5.070;2023-01-29T14:18:30;27.95;;;16.08;;
77598;SDS011;66758;52.078;5.070;2023-01-29T14:21:03;30.30;;;17.57;;
77598;SDS011;66758;52.078;5.070;2023-01-29T14:26:29;26.75;;;13.73;;
77598;SDS011;66758;52.078;5.070;2023-01-29T14:31:41;36.33;;;18.73;;
77598;SDS011;66758;52.078;5.070;2023-01-29T14:34:26;30.48;;;17.10;;
77598;SDS011;66758;52.078;5.070;2023-01-29T14:39:42;30.57;;;16.60;;
77598;SDS011;66758;52.078;5.070;2023-01-29T14:42:22;26.67;;;15.13;;
77598;SDS011;66758;52.078;5.070;2023-01-29T14:53:10;28.25;;;16.08;;
77598;SDS011;66758;52.078;5.070;2023-01-29T14:55:41;28.35;;;16.00;;
77598;SDS011;66758;52.078;5.070;2023-01-29T14:58:13;29.80;;;16.33;;
77598;SDS011;66758;52.078;5.070;2023-01-29T15:00:44;28.52;;;16.35;;
77598;SDS011;66758;52.078;5.070;2023-01-29T15:03:18;27.10;;;15.90;;
77598;SDS011;66758;52.078;5.070;2023-01-29T15:05:54;28.13;;;15.55;;
77598;SDS011;66758;52.078;5.070;2023-01-29T15:10:57;28.40;;;15.43;;
77598;SDS011;66758;52.078;5.070;2023-01-29T15:16:21;28.07;;;14.27;;
77598;SDS011;66758;52.078;5.070;2023-01-29T15:18:51;25.38;;;14.63;;
77598;SDS011;66758;52.078;5.070;2023-01-29T15:21:20;25.35;;;14.95;;
77598;SDS011;66758;52.078;5.070;2023-01-29T15:23:46;23.75;;;13.38;;
77598;SDS011;66758;52.078;5.070;2023-01-29T15:26:17;27.37;;;16.47;;
77598;SDS011;66758;52.078;5.070;2023-01-29T15:28:44;23.08;;;13.95;;
77598;SDS011;66758;52.078;5.070;2023-01-29T15:31:21;21.90;;;13.50;;
77598;SDS011;66758;52.078;5.070;2023-01-29T15:33:50;25.80;;;14.33;;
77598;SDS011;66758;52.078;5.070;2023-01-29T15:36:18;25.88;;;14.23;;
77598;SDS011;66758;52.078;5.070;2023-01-29T15:38:47;29.05;;;16.27;;
77598;SDS011;66758;52.078;5.070;2023-01-29T15:41:17;24.20;;;12.87;;
77598;SDS011;66758;52.078;5.070;2023-01-29T15:43:45;23.97;;;14.13;;
77598;SDS011;66758;52.078;5.070;2023-01-29T15:48:50;25.15;;;14.75;;
77598;SDS011;66758;52.078;5.070;2023-01-29T15:51:19;23.52;;;13.15;;
77598;SDS011;66758;52.078;5.070;2023-01-29T15:53:55;24.20;;;13.70;;
77598;SDS011;66758;52.078;5.070;2023-01-29T15:56:32;29.67;;;14.93;;
77598;SDS011;66758;52.078;5.070;2023-01-29T15:59:02;25.65;;;13.57;;
77598;SDS011;66758;52.078;5.070;2023-01-29T16:01:30;28.88;;;15.00;;
77598;SDS011;66758;52.078;5.070;2023-01-29T16:03:56;31.30;;;16.50;;
77598;SDS011;66758;52.078;5.070;2023-01-29T16:06:27;28.77;;;14.82;;
77598;SDS011;66758;52.078;5.070;2023-01-29T16:08:58;23.83;;;13.90;;
77598;SDS011;66758;52.078;5.070;2023-01-29T16:11:24;28.98;;;14.75;;
77598;SDS011;66758;52.078;5.070;2023-01-29T16:13:50;26.92;;;15.27;;
77598;SDS011;66758;52.078;5.070;2023-01-29T16:16:23;29.42;;;14.98;;
77598;SDS011;66758;52.078;5.070;2023-01-29T16:18:51;27.23;;;15.47;;
77598;SDS011;66758;52.078;5.070;2023-01-29T16:21:22;29.08;;;15.35;;
77598;SDS011;66758;52.078;5.070;2023-01-29T16:24:06;29.52;;;16.13;;
77598;SDS011;66758;52.078;5.070;2023-01-29T16:26:36;32.33;;;18.67;;
77598;SDS011;66758;52.078;5.070;2023-01-29T16:29:17;41.13;;;20.45;;
77598;SDS011;66758;52.078;5.070;2023-01-29T16:31:58;23.07;;;11.80;;
77598;SDS011;66758;52.078;5.070;2023-01-29T16:34:28;32.13;;;16.92;;
77598;SDS011;66758;52.078;5.070;2023-01-29T16:37:31;36.30;;;18.23;;
77598;SDS011;66758;52.078;5.070;2023-01-29T16:40:11;31.25;;;15.63;;
77598;SDS011;66758;52.078;5.070;2023-01-29T16:42:39;42.28;;;21.60;;
77598;SDS011;66758;52.078;5.070;2023-01-29T16:45:39;34.23;;;17.97;;
77598;SDS011;66758;52.078;5.070;2023-01-29T16:48:31;30.52;;;17.58;;
77598;SDS011;66758;52.078;5.070;2023-01-29T16:51:01;30.92;;;16.65;;
77598;SDS011;66758;52.078;5.070;2023-01-29T16:53:28;37.13;;;19.42;;
77598;SDS011;66758;52.078;5.070;2023-01-29T16:55:54;33.40;;;18.10;;
77598;SDS011;66758;52.078;5.070;2023-01-29T16:58:29;35.35;;;18.77;;
77598;SDS011;66758;52.078;5.070;2023-01-29T17:00:57;37.33;;;19.27;;
77598;SDS011;66758;52.078;5.070;2023-01-29T17:03:38;33.33;;;17.70;;
77598;SDS011;66758;52.078;5.070;2023-01-29T17:06:17;35.00;;;16.58;;
77598;SDS011;66758;52.078;5.070;2023-01-29T17:08:45;34.13;;;17.92;;
77598;SDS011;66758;52.078;5.070;2023-01-29T17:11:12;30.63;;;16.67;;
77598;SDS011;66758;52.078;5.070;2023-01-29T17:13:57;30.05;;;15.68;;
77598;SDS011;66758;52.078;5.070;2023-01-29T17:16:29;34.58;;;17.33;;
77598;SDS011;66758;52.078;5.070;2023-01-29T17:18:56;37.17;;;19.42;;
77598;SDS011;66758;52.078;5.070;2023-01-29T17:21:23;34.83;;;17.85;;
77598;SDS011;66758;52.078;5.070;2023-01-29T17:23:53;34.00;;;17.23;;
77598;SDS011;66758;52.078;5.070;2023-01-29T17:26:19;32.25;;;17.08;;
77598;SDS011;66758;52.078;5.070;2023-01-29T17:28:45;28.77;;;14.07;;
77598;SDS011;66758;52.078;5.070;2023-01-29T17:31:14;31.33;;;15.70;;
77598;SDS011;66758;52.078;5.070;2023-01-29T17:33:45;33.90;;;17.10;;
77598;SDS011;66758;52.078;5.070;2023-01-29T17:36:13;33.60;;;15.60;;
77598;SDS011;66758;52.078;5.070;2023-01-29T17:38:48;33.83;;;15.32;;
77598;SDS011;66758;52.078;5.070;2023-01-29T17:41:19;29.33;;;15.43;;
77598;SDS011;66758;52.078;5.070;2023-01-29T17:43:52;34.73;;;16.40;;
77598;SDS011;66758;52.078;5.070;2023-01-29T17:46:20;31.02;;;15.68;;